Villa San Agustin, Puerto Rico
Current Conditions -  °F | °C
As of 1:45 PM on Sunday 23 Nov 2014 (Local Time) from TJIG Reporting Station
Scattered Clouds Scattered Clouds  
Wind Chill: 84°   Ceiling: Unl
Heat Index: 90°   Visibility: 10mi
Dew Point: 72°   Wind: 17mph
Humidity: 66%   Direction: 90°E
Pressure: 30.02"   Gusts: NA
Location:  18.1781°N, 66.1167°W
Report Text: TJIG 231745Z 09015KT 10SM SCT042 SCT160 29/22 A3002 RMK RY09 IN USE ATIS H
Loading
Personal Weather Stations






























Interactive Weather Map New forecast layout! Learn more

10-Day Weather Forecast

Advertisements
Track Severe Weather on mobile